Welcome to our new website - Welkom op onze vernieuwde website - Bienvenue sur notre nouveau site web - Willkommen auf unserer neuen Website
Check our progress frequently. Prüfen Sie unsere Fortschritte regelmäßig. Consultez notre progression fréquemment. Komt u straks nog eens terug


Webcam zuid Meer informatie Webcam zuid


Onweer radar Meer informatie blitzortung!


Regen radar Meer informatie rain snow radar


Bezoek onze andere website:

Template documentation
and downloads

And another site


U vindt ons ook hier:

Het Weer Aktueel

UK Metoffice

European Weather Network

WeatherCloud

Weather Underground

AWEKAS

Citizen Weather Observer Program (CWOP)

HAMweather, WeatherForYou, PWS Weather

Wetterpage 24

Roosendaal op internet

VWKWEB

RadioZuidWestFM



Het weer levert geen direct gevaar op.    Er zijn geen waarschuwingen afgegeven.

Select another period ( hide this area )

Eenheden Periode Custom range Directly to
Metrisch Engels Beide
Dagelijkse Wekelijkse Maandelijkse Jaarlijkse
use both date-selectors for a custom range
previous Dag
With this date

WeatherUnderground graphs for this period ( click here )



Warning: Division by zero in /var/www/vhosts/meteoroosendaalwest.nl/weather2/weather28m/wu/WU-History4.php on line 835
Dagelijkse Samenvatting Woensdag 22 augustus 2018
Tijd Temp. ( °C ) Dew pt. ( °C ) Wind ( km/h ) van Windvlaag ( km/h ) Luchtdruk ( hPa ) Humid.( % ) Rainrate ( cm ) Zonneschijn ( W/m2 )
Hoog19,3 17,6 0,0 ( 0/0 ) 0,0 1018,9 95 - 0
Gemiddeld18,5 17,3 0,0 Kalm #55/55 0,0 1018,4 93 - 0 #0/55
Laag17,9 16,9 -   0,0 1017,5 89 -  
Dagelijkse Tabular details for Woensdag 22 augustus 2018
Tijd Temp. ( °C ) Dew pt. ( °C ) Wind ( km/h ) van Windvlaag ( km/h ) Luchtdruk ( hPa ) Humid.( % ) Rainrate ( cm ) Zonneschijn ( W/m2 )
00:04 19,3 17,4   Kalm   1018,9 89 - -
00:09 19,2 17,4   Kalm   1018,9 89 - -
00:14 19,2 17,3   Kalm   1018,8 89 - -
00:19 19,2 17,5   Kalm   1018,8 90 - -
00:24 19,1 17,4   Kalm   1018,9 90 - -
00:29 19,0 17,3   Kalm   1018,5 90 - -
00:34 19,1 17,6   Kalm   1018,9 91 - -
00:39 19,0 17,5   Kalm   1018,9 91 - -
00:44 19,0 17,5   Kalm   1018,8 91 - -
00:49 18,9 17,4   Kalm   1018,9 91 - -
00:54 18,9 17,4   Kalm   1018,9 91 - -
00:59 18,9 17,4   Kalm   1018,8 91 - -
01:04 18,8 17,5   Kalm   1018,9 92 - -
01:09 18,8 17,4   Kalm   1018,8 92 - -
01:14 18,8 17,4   Kalm   1018,9 92 - -
01:19 18,8 17,4   Kalm   1018,8 92 - -
01:24 18,7 17,4   Kalm   1018,2 92 - -
01:29 18,7 17,4   Kalm   1018,8 92 - -
01:34 18,7 17,4   Kalm   1018,8 92 - -
01:39 18,7 17,6   Kalm   1018,7 93 - -
01:44 18,7 17,6   Kalm   1018,7 93 - -
01:49 18,7 17,6   Kalm   1018,7 93 - -
01:54 18,6 17,4   Kalm   1018,2 93 - -
01:59 18,6 17,4   Kalm   1018,6 93 - -
02:04 18,5 17,3   Kalm   1018,2 93 - -
02:09 18,5 17,3   Kalm   1018,5 93 - -
02:14 18,4 17,3   Kalm   1018,6 93 - -
02:19 18,3 17,1   Kalm   1018,2 93 - -
02:24 18,4 17,2   Kalm   1018,5 93 - -
02:29 18,3 17,1   Kalm   1018,2 93 - -
02:34 18,3 17,2   Kalm   1018,4 93 - -
02:39 18,3 17,3   Kalm   1018,4 94 - -
02:44 18,2 17,2   Kalm   1018,4 94 - -
02:49 18,2 17,2   Kalm   1017,8 94 - -
02:54 18,2 17,2   Kalm   1018,4 94 - -
02:59 18,2 17,2   Kalm   1018,4 94 - -
03:04 18,1 17,1   Kalm   1018,3 94 - -
03:09 18,1 17,1   Kalm   1018,3 94 - -
03:14 18,1 17,1   Kalm   1018,2 94 - -
03:19 18,1 17,1   Kalm   1018,2 94 - -
03:24 18,0 17,0   Kalm   1018,2 94 - -
03:29 18,0 17,0   Kalm   1018,1 94 - -
03:34 18,0 17,0   Kalm   1018,1 94 - -
03:39 18,0 17,0   Kalm   1018,1 94 - -
03:44 17,9 16,9   Kalm   1017,5 94 - -
03:49 18,1 17,2   Kalm   1018,1 95 - -
03:54 18,1 17,3   Kalm   1018,1 95 - -
03:59 18,1 17,1   Kalm   1018,1 94 - -
04:04 18,1 17,1   Kalm   1018,0 94 - -
04:09 18,1 17,1   Kalm   1018,1 94 - -
04:14 18,1 17,1   Kalm   1018,0 94 - -
04:19 18,1 17,1   Kalm   1018,0 94 - -
04:24 18,1 17,1   Kalm   1018,0 94 - -
04:29 18,0 17,0   Kalm   1017,9 94 - -
04:34 17,9 16,9   Kalm   1017,9 94 - -
Dagelijkse Samenvatting Woensdag 22 augustus 2018
Tijd Temp. ( °C ) Dew pt. ( °C ) Wind ( km/h ) van Windvlaag ( km/h ) Luchtdruk ( hPa ) Humid.( % ) Rainrate ( cm ) Zonneschijn ( W/m2 )
Hoog19,3 17,6 0,0 ( 0/0 ) 0,0 1018,9 95 - 0
Gemiddeld18,5 17,3 0,0 Kalm #55/55 0,0 1018,4 93 - 0 #0/55
Laag17,9 16,9 -   0,0 1017,5 89 -  
Dagelijkse Tabular details for Woensdag 22 augustus 2018
Tijd Temp. ( °C ) Dew pt. ( °C ) Wind ( km/h ) van Windvlaag ( km/h ) Luchtdruk ( hPa ) Humid.( % ) Rainrate ( cm ) Zonneschijn ( W/m2 )
00:04 19,3 17,4   Kalm   1018,9 89 - -
00:09 19,2 17,4   Kalm   1018,9 89 - -
00:14 19,2 17,3   Kalm   1018,8 89 - -
00:19 19,2 17,5   Kalm   1018,8 90 - -
00:24 19,1 17,4   Kalm   1018,9 90 - -
00:29 19,0 17,3   Kalm   1018,5 90 - -
00:34 19,1 17,6   Kalm   1018,9 91 - -
00:39 19,0 17,5   Kalm   1018,9 91 - -
00:44 19,0 17,5   Kalm   1018,8 91 - -
00:49 18,9 17,4   Kalm   1018,9 91 - -
00:54 18,9 17,4   Kalm   1018,9 91 - -
00:59 18,9 17,4   Kalm   1018,8 91 - -
01:04 18,8 17,5   Kalm   1018,9 92 - -
01:09 18,8 17,4   Kalm   1018,8 92 - -
01:14 18,8 17,4   Kalm   1018,9 92 - -
01:19 18,8 17,4   Kalm   1018,8 92 - -
01:24 18,7 17,4   Kalm   1018,2 92 - -
01:29 18,7 17,4   Kalm   1018,8 92 - -
01:34 18,7 17,4   Kalm   1018,8 92 - -
01:39 18,7 17,6   Kalm   1018,7 93 - -
01:44 18,7 17,6   Kalm   1018,7 93 - -
01:49 18,7 17,6   Kalm   1018,7 93 - -
01:54 18,6 17,4   Kalm   1018,2 93 - -
01:59 18,6 17,4   Kalm   1018,6 93 - -
02:04 18,5 17,3   Kalm   1018,2 93 - -
02:09 18,5 17,3   Kalm   1018,5 93 - -
02:14 18,4 17,3   Kalm   1018,6 93 - -
02:19 18,3 17,1   Kalm   1018,2 93 - -
02:24 18,4 17,2   Kalm   1018,5 93 - -
02:29 18,3 17,1   Kalm   1018,2 93 - -
02:34 18,3 17,2   Kalm   1018,4 93 - -
02:39 18,3 17,3   Kalm   1018,4 94 - -
02:44 18,2 17,2   Kalm   1018,4 94 - -
02:49 18,2 17,2   Kalm   1017,8 94 - -
02:54 18,2 17,2   Kalm   1018,4 94 - -
02:59 18,2 17,2   Kalm   1018,4 94 - -
03:04 18,1 17,1   Kalm   1018,3 94 - -
03:09 18,1 17,1   Kalm   1018,3 94 - -
03:14 18,1 17,1   Kalm   1018,2 94 - -
03:19 18,1 17,1   Kalm   1018,2 94 - -
03:24 18,0 17,0   Kalm   1018,2 94 - -
03:29 18,0 17,0   Kalm   1018,1 94 - -
03:34 18,0 17,0   Kalm   1018,1 94 - -
03:39 18,0 17,0   Kalm   1018,1 94 - -
03:44 17,9 16,9   Kalm   1017,5 94 - -
03:49 18,1 17,2   Kalm   1018,1 95 - -
03:54 18,1 17,3   Kalm   1018,1 95 - -
03:59 18,1 17,1   Kalm   1018,1 94 - -
04:04 18,1 17,1   Kalm   1018,0 94 - -
04:09 18,1 17,1   Kalm   1018,1 94 - -
04:14 18,1 17,1   Kalm   1018,0 94 - -
04:19 18,1 17,1   Kalm   1018,0 94 - -
04:24 18,1 17,1   Kalm   1018,0 94 - -
04:29 18,0 17,0   Kalm   1017,9 94 - -
04:34 17,9 16,9   Kalm   1017,9 94 - -

Download your copy of this data-set  here

Our weather-data as stored at Weather Underground. Script ontwikkeld door Jim McMurry. Aangepast voor de template door Leuven-Template.eu

Apparatuur in gebruik:

Weerstation
Davis VP2

Weerprogramma
Meteobridge

Weercomputer
Shuttle

Webleverancier
WeservIT

Davis VP2

Meteobridge

Shuttle

WeservIT